Terminal Aerodrome Forecast
Issued by NWS Sterling, VA

Current Version | Previous Version | Graphics & Text | Print | Product List | Glossary On
Versions: 1 2 3 4 5 6 7 8 9 10 11 12 13 14 15 16 17 18 19 20 21
072
FTUS41 KLWX 192038 AAA
TAFDCA
TAF AMD
KDCA 192038Z 1921/2018 35013KT P6SM SCT035
     FM200000 34008KT P6SM FEW250
     FM201500 33008G16KT P6SM SCT050 SCT200=

USA.gov is the U.S. government's official web portal to all federal, state and local government web resources and services.